sensor_id;sensor_type;location;lat;lon;timestamp;pressure;altitude;pressure_sealevel;temperature;humidity
8140;BME280;4111;50.972;7.072;2022-10-29T00:02:15;101670.84;;;17.19;98.09
8140;BME280;4111;50.972;7.072;2022-10-29T00:04:41;101675.00;;;17.22;98.17
8140;BME280;4111;50.972;7.072;2022-10-29T00:07:08;101667.03;;;17.20;98.31
8140;BME280;4111;50.972;7.072;2022-10-29T00:09:34;101656.06;;;17.25;98.10
8140;BME280;4111;50.972;7.072;2022-10-29T00:12:02;101651.69;;;17.24;98.36
8140;BME280;4111;50.972;7.072;2022-10-29T00:14:29;101661.03;;;17.34;98.05
8140;BME280;4111;50.972;7.072;2022-10-29T00:16:55;101662.16;;;17.43;97.77
8140;BME280;4111;50.972;7.072;2022-10-29T00:19:23;101665.44;;;17.45;97.44
8140;BME280;4111;50.972;7.072;2022-10-29T00:21:51;101668.19;;;17.35;97.34
8140;BME280;4111;50.972;7.072;2022-10-29T00:24:17;101667.06;;;17.31;97.52
8140;BME280;4111;50.972;7.072;2022-10-29T00:26:44;101670.63;;;17.31;97.82
8140;BME280;4111;50.972;7.072;2022-10-29T00:29:10;101662.69;;;17.35;97.83
8140;BME280;4111;50.972;7.072;2022-10-29T00:31:36;101659.94;;;17.35;97.73
8140;BME280;4111;50.972;7.072;2022-10-29T00:34:03;101663.78;;;17.39;97.73
8140;BME280;4111;50.972;7.072;2022-10-29T00:36:29;101660.78;;;17.40;97.58
8140;BME280;4111;50.972;7.072;2022-10-29T00:38:56;101665.16;;;17.36;97.53
8140;BME280;4111;50.972;7.072;2022-10-29T00:41:27;101669.00;;;17.35;97.83
8140;BME280;4111;50.972;7.072;2022-10-29T00:46:40;101663.72;;;17.23;98.53
8140;BME280;4111;50.972;7.072;2022-10-29T00:49:09;101662.66;;;17.30;98.55
8140;BME280;4111;50.972;7.072;2022-10-29T00:51:37;101672.56;;;17.31;98.49
8140;BME280;4111;50.972;7.072;2022-10-29T00:54:07;101671.47;;;17.37;98.32
8140;BME280;4111;50.972;7.072;2022-10-29T00:56:49;101669.84;;;17.36;98.35
8140;BME280;4111;50.972;7.072;2022-10-29T00:59:17;101668.16;;;17.30;98.07
8140;BME280;4111;50.972;7.072;2022-10-29T01:01:45;101668.44;;;17.28;98.33
8140;BME280;4111;50.972;7.072;2022-10-29T01:04:13;101673.63;;;17.30;98.20
8140;BME280;4111;50.972;7.072;2022-10-29T01:06:40;101663.22;;;17.32;98.43
8140;BME280;4111;50.972;7.072;2022-10-29T01:09:12;101662.13;;;17.33;98.67
8140;BME280;4111;50.972;7.072;2022-10-29T01:22:40;101652.22;;;17.32;97.71
8140;BME280;4111;50.972;7.072;2022-10-29T01:25:34;101653.03;;;17.17;97.94
8140;BME280;4111;50.972;7.072;2022-10-29T01:28:23;101656.03;;;17.10;98.07
8140;BME280;4111;50.972;7.072;2022-10-29T01:31:12;101648.06;;;17.09;98.50
8140;BME280;4111;50.972;7.072;2022-10-29T01:36:17;101662.84;;;17.08;98.60
8140;BME280;4111;50.972;7.072;2022-10-29T01:39:04;101652.66;;;16.98;98.90
8140;BME280;4111;50.972;7.072;2022-10-29T01:44:13;101663.63;;;16.98;98.98
8140;BME280;4111;50.972;7.072;2022-10-29T01:46:48;101663.34;;;16.94;99.26
8140;BME280;4111;50.972;7.072;2022-10-29T01:49:20;101663.06;;;16.91;99.54
8140;BME280;4111;50.972;7.072;2022-10-29T01:51:50;101660.84;;;16.88;99.83
8140;BME280;4111;50.972;7.072;2022-10-29T01:54:17;101660.03;;;16.87;99.77
8140;BME280;4111;50.972;7.072;2022-10-29T01:56:54;101646.31;;;16.92;99.82
8140;BME280;4111;50.972;7.072;2022-10-29T01:59:21;101634.78;;;16.90;99.80
8140;BME280;4111;50.972;7.072;2022-10-29T02:02:21;101632.34;;;16.94;99.51
8140;BME280;4111;50.972;7.072;2022-10-29T02:10:49;101628.41;;;16.79;100.00
8140;BME280;4111;50.972;7.072;2022-10-29T02:13:19;101622.88;;;16.74;100.00
8140;BME280;4111;50.972;7.072;2022-10-29T02:15:52;101609.47;;;16.78;100.00
8140;BME280;4111;50.972;7.072;2022-10-29T02:18:19;101608.38;;;16.79;100.00
8140;BME280;4111;50.972;7.072;2022-10-29T02:20:46;101601.31;;;16.83;100.00
8140;BME280;4111;50.972;7.072;2022-10-29T02:23:14;101601.03;;;16.90;100.00
8140;BME280;4111;50.972;7.072;2022-10-29T02:25:42;101597.22;;;16.91;100.00
8140;BME280;4111;50.972;7.072;2022-10-29T02:28:08;101599.69;;;16.92;100.00
8140;BME280;4111;50.972;7.072;2022-10-29T02:30:35;101602.72;;;16.91;100.00
8140;BME280;4111;50.972;7.072;2022-10-29T02:33:01;101596.38;;;16.85;99.93
8140;BME280;4111;50.972;7.072;2022-10-29T02:35:28;101594.16;;;16.82;100.00
8140;BME280;4111;50.972;7.072;2022-10-29T02:37:54;101605.97;;;16.82;100.00
8140;BME280;4111;50.972;7.072;2022-10-29T02:40:21;101608.09;;;16.80;100.00
8140;BME280;4111;50.972;7.072;2022-10-29T02:42:47;101613.56;;;16.80;100.00
8140;BME280;4111;50.972;7.072;2022-10-29T02:45:13;101608.06;;;16.70;100.00
8140;BME280;4111;50.972;7.072;2022-10-29T02:47:40;101595.97;;;16.66;100.00
8140;BME280;4111;50.972;7.072;2022-10-29T02:50:07;101603.94;;;16.68;100.00
8140;BME280;4111;50.972;7.072;2022-10-29T02:52:33;101606.38;;;16.59;100.00
8140;BME280;4111;50.972;7.072;2022-10-29T02:55:00;101610.22;;;16.63;100.00
8140;BME280;4111;50.972;7.072;2022-10-29T02:57:26;101605.56;;;16.63;100.00
8140;BME280;4111;50.972;7.072;2022-10-29T02:59:52;101603.63;;;16.64;100.00
8140;BME280;4111;50.972;7.072;2022-10-29T03:02:19;101604.19;;;16.61;100.00
8140;BME280;4111;50.972;7.072;2022-10-29T03:04:45;101605.25;;;16.55;100.00
8140;BME280;4111;50.972;7.072;2022-10-29T03:07:12;101610.44;;;16.51;100.00
8140;BME280;4111;50.972;7.072;2022-10-29T03:09:38;101604.91;;;16.46;100.00
8140;BME280;4111;50.972;7.072;2022-10-29T03:12:05;101602.72;;;16.43;100.00
8140;BME280;4111;50.972;7.072;2022-10-29T03:14:31;101597.22;;;16.43;100.00
8140;BME280;4111;50.972;7.072;2022-10-29T03:16:58;101594.72;;;16.36;100.00
8140;BME280;4111;50.972;7.072;2022-10-29T03:19:24;101595.53;;;16.37;100.00
8140;BME280;4111;50.972;7.072;2022-10-29T03:21:50;101589.22;;;16.31;100.00
8140;BME280;4111;50.972;7.072;2022-10-29T03:24:17;101591.94;;;16.31;100.00
8140;BME280;4111;50.972;7.072;2022-10-29T03:26:43;101591.66;;;16.28;100.00
8140;BME280;4111;50.972;7.072;2022-10-29T03:29:10;101581.44;;;16.18;100.00
8140;BME280;4111;50.972;7.072;2022-10-29T03:31:36;101571.00;;;16.15;100.00
8140;BME280;4111;50.972;7.072;2022-10-29T03:34:02;101572.09;;;16.14;100.00
8140;BME280;4111;50.972;7.072;2022-10-29T03:36:29;101560.59;;;16.17;100.00
8140;BME280;4111;50.972;7.072;2022-10-29T03:38:55;101560.03;;;16.10;100.00
8140;BME280;4111;50.972;7.072;2022-10-29T03:41:21;101559.97;;;16.04;100.00
8140;BME280;4111;50.972;7.072;2022-10-29T03:43:48;101551.44;;;16.01;100.00
8140;BME280;4111;50.972;7.072;2022-10-29T03:46:14;101558.28;;;15.98;100.00
8140;BME280;4111;50.972;7.072;2022-10-29T03:48:41;101549.53;;;16.01;100.00
8140;BME280;4111;50.972;7.072;2022-10-29T03:51:09;101549.06;;;16.10;100.00
8140;BME280;4111;50.972;7.072;2022-10-29T03:53:36;101551.44;;;16.01;100.00
8140;BME280;4111;50.972;7.072;2022-10-29T03:56:02;101561.91;;;16.04;100.00
8140;BME280;4111;50.972;7.072;2022-10-29T03:58:29;101564.38;;;16.05;100.00
8140;BME280;4111;50.972;7.072;2022-10-29T04:01:00;101564.63;;;16.04;100.00
8140;BME280;4111;50.972;7.072;2022-10-29T04:03:29;101562.66;;;15.99;100.00
8140;BME280;4111;50.972;7.072;2022-10-29T04:05:56;101562.09;;;15.97;100.00
8140;BME280;4111;50.972;7.072;2022-10-29T04:08:23;101564.81;;;15.92;100.00
8140;BME280;4111;50.972;7.072;2022-10-29T04:10:50;101559.56;;;15.85;100.00
8140;BME280;4111;50.972;7.072;2022-10-29T04:13:17;101562.28;;;15.85;100.00
8140;BME280;4111;50.972;7.072;2022-10-29T04:15:44;101561.22;;;15.86;100.00
8140;BME280;4111;50.972;7.072;2022-10-29T04:18:11;101559.84;;;15.89;100.00
8140;BME280;4111;50.972;7.072;2022-10-29T04:20:39;101566.47;;;15.93;100.00
8140;BME280;4111;50.972;7.072;2022-10-29T04:23:26;101560.97;;;15.93;100.00
8140;BME280;4111;50.972;7.072;2022-10-29T04:26:12;101573.28;;;15.91;100.00
8140;BME280;4111;50.972;7.072;2022-10-29T04:28:59;101571.03;;;15.82;100.00
8140;BME280;4111;50.972;7.072;2022-10-29T04:31:25;101569.34;;;15.76;100.00
8140;BME280;4111;50.972;7.072;2022-10-29T04:33:52;101565.78;;;15.76;100.00
8140;BME280;4111;50.972;7.072;2022-10-29T04:36:18;101563.34;;;15.79;100.00
8140;BME280;4111;50.972;7.072;2022-10-29T04:38:45;101556.78;;;15.80;100.00
8140;BME280;4111;50.972;7.072;2022-10-29T04:41:11;101551.31;;;15.80;100.00
8140;BME280;4111;50.972;7.072;2022-10-29T04:43:37;101529.66;;;15.79;100.00
8140;BME280;4111;50.972;7.072;2022-10-29T04:46:04;101518.75;;;15.84;100.00
8140;BME280;4111;50.972;7.072;2022-10-29T04:48:30;101499.44;;;15.69;100.00
8140;BME280;4111;50.972;7.072;2022-10-29T04:50:57;101481.50;;;15.51;100.00
8140;BME280;4111;50.972;7.072;2022-10-29T04:53:23;101454.84;;;15.36;100.00
8140;BME280;4111;50.972;7.072;2022-10-29T04:55:49;101497.13;;;15.50;100.00
8140;BME280;4111;50.972;7.072;2022-10-29T04:58:18;101543.25;;;15.69;100.00
8140;BME280;4111;50.972;7.072;2022-10-29T05:00:45;101549.94;;;15.78;100.00
8140;BME280;4111;50.972;7.072;2022-10-29T05:03:12;101539.00;;;15.83;100.00
8140;BME280;4111;50.972;7.072;2022-10-29T05:05:39;101517.13;;;15.88;100.00
8140;BME280;4111;50.972;7.072;2022-10-29T05:08:09;101514.47;;;15.98;100.00
8140;BME280;4111;50.972;7.072;2022-10-29T05:10:38;101513.28;;;15.84;100.00
8140;BME280;4111;50.972;7.072;2022-10-29T05:13:09;101490.31;;;15.90;100.00
8140;BME280;4111;50.972;7.072;2022-10-29T05:15:37;101487.06;;;15.98;100.00
8140;BME280;4111;50.972;7.072;2022-10-29T05:18:05;101489.84;;;16.03;100.00
8140;BME280;4111;50.972;7.072;2022-10-29T05:20:31;101483.00;;;16.06;100.00
8140;BME280;4111;50.972;7.072;2022-10-29T05:23:02;101489.88;;;16.09;100.00
8140;BME280;4111;50.972;7.072;2022-10-29T05:25:29;101489.59;;;16.10;100.00
8140;BME280;4111;50.972;7.072;2022-10-29T05:30:27;101489.34;;;16.17;100.00
8140;BME280;4111;50.972;7.072;2022-10-29T05:32:53;101498.69;;;16.16;100.00
8140;BME280;4111;50.972;7.072;2022-10-29T05:35:20;101504.97;;;16.16;100.00
8140;BME280;4111;50.972;7.072;2022-10-29T05:37:53;101504.47;;;16.19;100.00
8140;BME280;4111;50.972;7.072;2022-10-29T05:40:21;101505.81;;;16.17;100.00
8140;BME280;4111;50.972;7.072;2022-10-29T05:42:48;101518.94;;;16.15;100.00
8140;BME280;4111;50.972;7.072;2022-10-29T05:45:15;101515.69;;;16.18;100.00
8140;BME280;4111;50.972;7.072;2022-10-29T05:47:41;101517.59;;;16.17;100.00
8140;BME280;4111;50.972;7.072;2022-10-29T05:50:08;101523.09;;;16.17;100.00
8140;BME280;4111;50.972;7.072;2022-10-29T05:52:35;101517.31;;;16.14;100.00
8140;BME280;4111;50.972;7.072;2022-10-29T05:55:02;101514.00;;;16.12;100.00
8140;BME280;4111;50.972;7.072;2022-10-29T05:57:28;101516.47;;;16.13;100.00
8140;BME280;4111;50.972;7.072;2022-10-29T05:59:55;101524.97;;;16.12;100.00
8140;BME280;4111;50.972;7.072;2022-10-29T06:02:21;101520.03;;;16.14;100.00
8140;BME280;4111;50.972;7.072;2022-10-29T06:04:48;101513.47;;;16.15;100.00
8140;BME280;4111;50.972;7.072;2022-10-29T06:07:14;101512.91;;;16.13;100.00
8140;BME280;4111;50.972;7.072;2022-10-29T06:09:40;101517.00;;;16.10;100.00
8140;BME280;4111;50.972;7.072;2022-10-29T06:12:07;101518.88;;;16.04;100.00
8140;BME280;4111;50.972;7.072;2022-10-29T06:14:33;101506.00;;;16.00;100.00
8140;BME280;4111;50.972;7.072;2022-10-29T06:17:00;101505.69;;;16.01;100.00
8140;BME280;4111;50.972;7.072;2022-10-29T06:19:27;101504.63;;;16.02;100.00
8140;BME280;4111;50.972;7.072;2022-10-29T06:21:53;101495.84;;;16.00;100.00
8140;BME280;4111;50.972;7.072;2022-10-29T06:24:25;101499.16;;;16.02;100.00
8140;BME280;4111;50.972;7.072;2022-10-29T06:26:52;101494.19;;;15.99;100.00
8140;BME280;4111;50.972;7.072;2022-10-29T06:29:19;101498.63;;;16.05;100.00
8140;BME280;4111;50.972;7.072;2022-10-29T06:31:45;101488.78;;;16.10;100.00
8140;BME280;4111;50.972;7.072;2022-10-29T06:34:12;101488.81;;;16.15;100.00
8140;BME280;4111;50.972;7.072;2022-10-29T06:36:40;101483.88;;;16.17;100.00
8140;BME280;4111;50.972;7.072;2022-10-29T06:39:06;101472.41;;;16.25;100.00
8140;BME280;4111;50.972;7.072;2022-10-29T06:41:33;101473.81;;;16.33;100.00
8140;BME280;4111;50.972;7.072;2022-10-29T06:43:59;101469.47;;;16.42;100.00
8140;BME280;4111;50.972;7.072;2022-10-29T06:46:25;101463.72;;;16.49;100.00
8140;BME280;4111;50.972;7.072;2022-10-29T06:48:52;101461.56;;;16.56;100.00
8140;BME280;4111;50.972;7.072;2022-10-29T06:51:18;101462.13;;;16.58;100.00
8140;BME280;4111;50.972;7.072;2022-10-29T06:53:45;101481.06;;;16.59;100.00
8140;BME280;4111;50.972;7.072;2022-10-29T06:56:11;101492.31;;;16.63;100.00
8140;BME280;4111;50.972;7.072;2022-10-29T06:58:38;101505.22;;;16.68;100.00
8140;BME280;4111;50.972;7.072;2022-10-29T07:01:04;101506.06;;;16.78;100.00
8140;BME280;4111;50.972;7.072;2022-10-29T07:03:30;101516.56;;;16.92;99.98
8140;BME280;4111;50.972;7.072;2022-10-29T07:05:58;101520.44;;;17.01;99.30
8140;BME280;4111;50.972;7.072;2022-10-29T07:08:25;101522.63;;;17.04;98.93
8140;BME280;4111;50.972;7.072;2022-10-29T07:10:52;101525.94;;;17.11;98.72
8140;BME280;4111;50.972;7.072;2022-10-29T07:13:19;101524.31;;;17.20;98.07
8140;BME280;4111;50.972;7.072;2022-10-29T07:15:45;101522.69;;;17.24;98.09
8140;BME280;4111;50.972;7.072;2022-10-29T07:18:11;101515.25;;;17.20;97.74
8140;BME280;4111;50.972;7.072;2022-10-29T07:20:40;101505.09;;;17.15;97.51
8140;BME280;4111;50.972;7.072;2022-10-29T07:23:07;101505.34;;;17.14;97.52
8140;BME280;4111;50.972;7.072;2022-10-29T07:25:35;101514.44;;;17.14;97.73
8140;BME280;4111;50.972;7.072;2022-10-29T07:28:09;101511.69;;;17.30;97.86
8140;BME280;4111;50.972;7.072;2022-10-29T07:30:36;101517.72;;;17.32;97.22
8140;BME280;4111;50.972;7.072;2022-10-29T07:33:03;101513.91;;;17.38;96.43
8140;BME280;4111;50.972;7.072;2022-10-29T07:35:29;101534.78;;;17.44;96.49
8140;BME280;4111;50.972;7.072;2022-10-29T07:38:03;101533.41;;;17.47;95.96
8140;BME280;4111;50.972;7.072;2022-10-29T07:40:46;101539.72;;;17.57;95.52
8140;BME280;4111;50.972;7.072;2022-10-29T07:43:13;101524.34;;;17.61;95.45
8140;BME280;4111;50.972;7.072;2022-10-29T07:45:41;101536.97;;;17.62;94.79
8140;BME280;4111;50.972;7.072;2022-10-29T07:48:08;101541.94;;;17.66;95.10
8140;BME280;4111;50.972;7.072;2022-10-29T07:50:36;101546.03;;;17.68;94.64
8140;BME280;4111;50.972;7.072;2022-10-29T07:53:04;101528.16;;;17.81;94.71
8140;BME280;4111;50.972;7.072;2022-10-29T07:55:31;101528.22;;;17.91;94.30
8140;BME280;4111;50.972;7.072;2022-10-29T07:57:59;101534.78;;;17.90;93.89
8140;BME280;4111;50.972;7.072;2022-10-29T08:00:28;101528.75;;;17.88;93.50
8140;BME280;4111;50.972;7.072;2022-10-29T08:02:55;101529.03;;;17.92;93.56
8140;BME280;4111;50.972;7.072;2022-10-29T08:05:23;101526.53;;;18.00;93.38
8140;BME280;4111;50.972;7.072;2022-10-29T08:07:53;101523.50;;;18.07;92.99
8140;BME280;4111;50.972;7.072;2022-10-29T08:10:22;101521.56;;;18.02;92.38
8140;BME280;4111;50.972;7.072;2022-10-29T08:12:55;101513.88;;;18.10;92.57
8140;BME280;4111;50.972;7.072;2022-10-29T08:15:23;101519.91;;;18.17;92.19
8140;BME280;4111;50.972;7.072;2022-10-29T08:17:50;101522.09;;;18.25;92.22
8140;BME280;4111;50.972;7.072;2022-10-29T08:20:17;101513.81;;;18.30;91.70
8140;BME280;4111;50.972;7.072;2022-10-29T08:22:44;101507.22;;;18.26;91.41
8140;BME280;4111;50.972;7.072;2022-10-29T08:25:11;101507.22;;;18.31;91.20
8140;BME280;4111;50.972;7.072;2022-10-29T08:27:37;101517.66;;;18.34;91.05
8140;BME280;4111;50.972;7.072;2022-10-29T08:30:12;101519.03;;;18.37;90.94
8140;BME280;4111;50.972;7.072;2022-10-29T08:32:45;101508.31;;;18.35;90.66
8140;BME280;4111;50.972;7.072;2022-10-29T08:35:12;101505.00;;;18.38;90.47
8140;BME280;4111;50.972;7.072;2022-10-29T08:37:43;101490.41;;;18.38;90.32
8140;BME280;4111;50.972;7.072;2022-10-29T08:43:46;101494.50;;;18.46;90.44
8140;BME280;4111;50.972;7.072;2022-10-29T08:46:45;101501.91;;;18.55;90.19
8140;BME280;4111;50.972;7.072;2022-10-29T08:49:19;101493.66;;;18.55;89.92
8140;BME280;4111;50.972;7.072;2022-10-29T08:52:10;101491.44;;;18.57;89.45
8140;BME280;4111;50.972;7.072;2022-10-29T08:54:46;101490.63;;;18.57;89.08
8140;BME280;4111;50.972;7.072;2022-10-29T08:57:17;101494.19;;;18.57;89.06
8140;BME280;4111;50.972;7.072;2022-10-29T09:00:14;101496.09;;;18.62;88.93
8140;BME280;4111;50.972;7.072;2022-10-29T09:02:41;101495.53;;;18.65;89.03
8140;BME280;4111;50.972;7.072;2022-10-29T09:05:13;101498.47;;;18.79;89.14
8140;BME280;4111;50.972;7.072;2022-10-29T09:07:55;101502.59;;;18.87;88.59
8140;BME280;4111;50.972;7.072;2022-10-29T09:10:38;101502.88;;;18.90;88.14
8140;BME280;4111;50.972;7.072;2022-10-29T09:13:31;101490.44;;;18.98;87.88
8140;BME280;4111;50.972;7.072;2022-10-29T09:24:45;101480.31;;;19.28;87.20
8140;BME280;4111;50.972;7.072;2022-10-29T09:30:05;101490.34;;;19.48;86.73
8140;BME280;4111;50.972;7.072;2022-10-29T09:32:54;101488.84;;;19.60;86.89
8140;BME280;4111;50.972;7.072;2022-10-29T09:35:38;101483.03;;;19.62;86.38
8140;BME280;4111;50.972;7.072;2022-10-29T09:38:11;101492.09;;;19.68;86.25
8140;BME280;4111;50.972;7.072;2022-10-29T09:40:41;101495.91;;;19.77;85.50
8140;BME280;4111;50.972;7.072;2022-10-29T09:43:37;101484.53;;;19.84;84.80
8140;BME280;4111;50.972;7.072;2022-10-29T09:53:50;101477.41;;;20.07;83.94
8140;BME280;4111;50.972;7.072;2022-10-29T09:56:17;101476.56;;;20.06;83.42
8140;BME280;4111;50.972;7.072;2022-10-29T09:58:45;101479.00;;;20.13;83.78
8140;BME280;4111;50.972;7.072;2022-10-29T10:01:16;101480.56;;;20.19;83.35
8140;BME280;4111;50.972;7.072;2022-10-29T10:03:46;101477.44;;;20.26;83.05
8140;BME280;4111;50.972;7.072;2022-10-29T10:06:15;101475.53;;;20.26;82.35
8140;BME280;4111;50.972;7.072;2022-10-29T10:09:02;101472.25;;;20.24;82.27
8140;BME280;4111;50.972;7.072;2022-10-29T10:11:35;101475.75;;;20.30;82.04
8140;BME280;4111;50.972;7.072;2022-10-29T10:14:17;101463.56;;;20.36;81.85
8140;BME280;4111;50.972;7.072;2022-10-29T10:16:45;101468.47;;;20.39;81.49
8140;BME280;4111;50.972;7.072;2022-10-29T10:19:22;101467.00;;;20.47;81.42
8140;BME280;4111;50.972;7.072;2022-10-29T10:22:01;101463.19;;;20.43;80.35
8140;BME280;4111;50.972;7.072;2022-10-29T10:24:35;101471.97;;;20.45;80.66
8140;BME280;4111;50.972;7.072;2022-10-29T10:27:23;101480.25;;;20.45;79.89
8140;BME280;4111;50.972;7.072;2022-10-29T10:32:29;101477.75;;;20.48;80.05
8140;BME280;4111;50.972;7.072;2022-10-29T10:34:55;101479.06;;;20.51;79.66
8140;BME280;4111;50.972;7.072;2022-10-29T10:37:22;101473.84;;;20.49;79.75
8140;BME280;4111;50.972;7.072;2022-10-29T10:39:55;101471.25;;;20.58;79.87
8140;BME280;4111;50.972;7.072;2022-10-29T10:42:29;101462.94;;;20.63;79.58
8140;BME280;4111;50.972;7.072;2022-10-29T10:45:44;101457.88;;;20.70;79.24
8140;BME280;4111;50.972;7.072;2022-10-29T10:47:54;101450.19;;;20.67;79.15
8140;BME280;4111;50.972;7.072;2022-10-29T10:50:27;101452.88;;;20.72;79.14
8140;BME280;4111;50.972;7.072;2022-10-29T10:52:56;101446.44;;;20.77;78.88
8140;BME280;4111;50.972;7.072;2022-10-29T10:55:26;101445.06;;;20.79;78.55
8140;BME280;4111;50.972;7.072;2022-10-29T10:58:04;101442.81;;;20.82;78.58
8140;BME280;4111;50.972;7.072;2022-10-29T11:00:38;101447.50;;;20.81;78.25
8140;BME280;4111;50.972;7.072;2022-10-29T11:03:14;101448.34;;;20.82;78.01
8140;BME280;4111;50.972;7.072;2022-10-29T11:08:35;101444.09;;;20.89;77.96
8140;BME280;4111;50.972;7.072;2022-10-29T11:11:09;101443.84;;;20.86;77.45
8140;BME280;4111;50.972;7.072;2022-10-29T11:13:38;101443.25;;;20.89;77.29
8140;BME280;4111;50.972;7.072;2022-10-29T11:16:15;101433.03;;;20.89;76.85
8140;BME280;4111;50.972;7.072;2022-10-29T11:19:32;101427.72;;;20.93;76.90
8140;BME280;4111;50.972;7.072;2022-10-29T11:28:10;101430.94;;;21.00;76.25
8140;BME280;4111;50.972;7.072;2022-10-29T11:30:47;101430.88;;;21.05;76.05
8140;BME280;4111;50.972;7.072;2022-10-29T11:33:21;101432.41;;;21.11;75.93
8140;BME280;4111;50.972;7.072;2022-10-29T11:36:00;101437.78;;;21.22;75.76
8140;BME280;4111;50.972;7.072;2022-10-29T11:38:39;101426.09;;;21.25;75.04
8140;BME280;4111;50.972;7.072;2022-10-29T11:44:33;101417.03;;;21.38;74.98
8140;BME280;4111;50.972;7.072;2022-10-29T11:55:29;101406.78;;;21.57;74.10
8140;BME280;4111;50.972;7.072;2022-10-29T11:58:26;101409.13;;;21.64;74.03
8140;BME280;4111;50.972;7.072;2022-10-29T12:01:35;101407.72;;;21.67;73.64
8140;BME280;4111;50.972;7.072;2022-10-29T12:04:23;101404.31;;;21.70;73.35
8140;BME280;4111;50.972;7.072;2022-10-29T12:12:23;101403.22;;;21.98;72.76
8140;BME280;4111;50.972;7.072;2022-10-29T12:17:46;101395.00;;;22.07;71.91
8140;BME280;4111;50.972;7.072;2022-10-29T12:20:53;101405.03;;;22.17;72.04
8140;BME280;4111;50.972;7.072;2022-10-29T12:23:51;101389.88;;;22.14;70.69
8140;BME280;4111;50.972;7.072;2022-10-29T12:26:25;101388.75;;;22.15;71.06
8140;BME280;4111;50.972;7.072;2022-10-29T12:29:09;101384.16;;;22.25;70.75
8140;BME280;4111;50.972;7.072;2022-10-29T12:31:59;101372.88;;;22.35;70.72
8140;BME280;4111;50.972;7.072;2022-10-29T12:34:39;101383.69;;;22.45;71.28
8140;BME280;4111;50.972;7.072;2022-10-29T12:37:20;101376.94;;;22.51;70.94
8140;BME280;4111;50.972;7.072;2022-10-29T12:40:02;101377.13;;;22.55;70.32
8140;BME280;4111;50.972;7.072;2022-10-29T12:42:29;101375.06;;;22.61;70.11
8140;BME280;4111;50.972;7.072;2022-10-29T12:45:32;101367.44;;;22.66;69.84
8140;BME280;4111;50.972;7.072;2022-10-29T12:48:45;101357.84;;;22.64;69.45
8140;BME280;4111;50.972;7.072;2022-10-29T12:51:23;101364.47;;;22.63;69.10
8140;BME280;4111;50.972;7.072;2022-10-29T12:56:34;101364.81;;;22.61;69.63
8140;BME280;4111;50.972;7.072;2022-10-29T13:01:51;101358.44;;;22.61;69.45
8140;BME280;4111;50.972;7.072;2022-10-29T13:04:37;101363.66;;;22.62;69.43
8140;BME280;4111;50.972;7.072;2022-10-29T13:07:05;101358.44;;;22.61;69.07
8140;BME280;4111;50.972;7.072;2022-10-29T13:09:48;101356.00;;;22.59;69.41
8140;BME280;4111;50.972;7.072;2022-10-29T13:15:20;101350.28;;;22.55;69.41
8140;BME280;4111;50.972;7.072;2022-10-29T13:17:50;101345.56;;;22.56;69.23
8140;BME280;4111;50.972;7.072;2022-10-29T13:20:25;101336.75;;;22.54;69.22
8140;BME280;4111;50.972;7.072;2022-10-29T13:22:57;101338.50;;;22.50;69.15
8140;BME280;4111;50.972;7.072;2022-10-29T13:28:09;101334.97;;;22.35;69.54
8140;BME280;4111;50.972;7.072;2022-10-29T13:41:36;101328.09;;;22.33;69.80
8140;BME280;4111;50.972;7.072;2022-10-29T13:44:16;101322.16;;;22.40;69.66
8140;BME280;4111;50.972;7.072;2022-10-29T13:49:47;101314.84;;;22.44;69.92
8140;BME280;4111;50.972;7.072;2022-10-29T13:52:16;101311.25;;;22.43;69.75
8140;BME280;4111;50.972;7.072;2022-10-29T13:54:56;101302.84;;;22.48;69.77
8140;BME280;4111;50.972;7.072;2022-10-29T13:57:30;101302.91;;;22.57;69.86
8140;BME280;4111;50.972;7.072;2022-10-29T14:08:02;101280.59;;;22.53;69.79
8140;BME280;4111;50.972;7.072;2022-10-29T14:15:37;101271.44;;;22.53;69.90
8140;BME280;4111;50.972;7.072;2022-10-29T14:18:23;101268.69;;;22.53;69.99
8140;BME280;4111;50.972;7.072;2022-10-29T14:20:54;101272.91;;;22.50;70.08
8140;BME280;4111;50.972;7.072;2022-10-29T14:23:21;101272.72;;;22.47;70.19
8140;BME280;4111;50.972;7.072;2022-10-29T14:25:52;101271.59;;;22.48;69.98
8140;BME280;4111;50.972;7.072;2022-10-29T14:33:33;101275.66;;;22.50;70.26
8140;BME280;4111;50.972;7.072;2022-10-29T14:38:39;101286.44;;;22.52;70.37
8140;BME280;4111;50.972;7.072;2022-10-29T14:41:07;101289.19;;;22.52;70.60
8140;BME280;4111;50.972;7.072;2022-10-29T14:43:34;101281.22;;;22.50;70.66
8140;BME280;4111;50.972;7.072;2022-10-29T14:46:10;101285.13;;;22.49;70.79
8140;BME280;4111;50.972;7.072;2022-10-29T14:48:50;101283.16;;;22.50;70.76
8140;BME280;4111;50.972;7.072;2022-10-29T14:51:18;101289.94;;;22.44;70.75
8140;BME280;4111;50.972;7.072;2022-10-29T14:53:51;101287.81;;;22.41;70.97
8140;BME280;4111;50.972;7.072;2022-10-29T14:56:20;101278.59;;;22.31;71.03
8140;BME280;4111;50.972;7.072;2022-10-29T14:58:49;101281.72;;;22.30;71.49
8140;BME280;4111;50.972;7.072;2022-10-29T15:01:15;101291.75;;;22.26;71.49
8140;BME280;4111;50.972;7.072;2022-10-29T15:03:45;101281.50;;;22.26;71.52
8140;BME280;4111;50.972;7.072;2022-10-29T15:06:18;101285.19;;;22.22;71.48
8140;BME280;4111;50.972;7.072;2022-10-29T15:09:09;101290.13;;;22.11;71.37
8140;BME280;4111;50.972;7.072;2022-10-29T15:11:46;101288.31;;;22.06;71.63
8140;BME280;4111;50.972;7.072;2022-10-29T15:16:56;101281.75;;;22.02;71.54
8140;BME280;4111;50.972;7.072;2022-10-29T15:19:23;101284.63;;;21.97;71.58
8140;BME280;4111;50.972;7.072;2022-10-29T15:21:49;101272.03;;;21.91;71.60
8140;BME280;4111;50.972;7.072;2022-10-29T15:24:19;101275.00;;;21.94;71.89
8140;BME280;4111;50.972;7.072;2022-10-29T15:26:49;101268.47;;;21.90;71.82
8140;BME280;4111;50.972;7.072;2022-10-29T15:29:21;101276.34;;;21.83;71.80
8140;BME280;4111;50.972;7.072;2022-10-29T15:31:55;101282.53;;;21.80;71.82
8140;BME280;4111;50.972;7.072;2022-10-29T15:34:29;101284.88;;;21.73;72.07
8140;BME280;4111;50.972;7.072;2022-10-29T15:36:56;101278.34;;;21.69;71.98
8140;BME280;4111;50.972;7.072;2022-10-29T15:39:28;101277.31;;;21.65;72.08
8140;BME280;4111;50.972;7.072;2022-10-29T15:42:18;101281.81;;;21.61;72.19